OIIK  Qazvin Airport

Add Bookmark

Qazvin, Iran

Status
Operational
Latitude Longitude
36° 14' 24" N 50° 2' 49" E
36.240101 50.047100
Local (DST + 5) UTC (GMT + 4)
Oct 22, 2014 01:04 Oct 22, 2014 09:34
Sunrise-Sunset Local UTC
Begin Civil Twilight 05:55 02:25
Sunrise 06:22 02:52
Sunset 05:26 13:56
End Civil Twilight 05:52 14:22

Current Weather

METAR Observed VFR
OIIK 220900Z 27006KT 9999 FEW025 19/07 Q1019 Wed, Oct 22, 2014 @ 09:00 UTC
(34 Minutes ago)
Visual Flight Rules
Wind Visibility Clouds Conditions
270° at 6 knots (11 kph) 10 km or more
  • Few at 2,500' AGL
  • No significant weather
Temperatures Readings Precipitation
Current Temp 19°C (66°F)
Dewpoint 7°C (45°F)
Humidity 46%
Altimeter 30.09"Hg
Sea Level Pressure 1019mb
Field Elevation 4192.91'
None Recorded

Additional weather within a 92.6km radius of OIIK

Map ICAO Location
OIIP 87km S (126°)

24 Hour Weather History

Loading
-

24 Hour Weather Graphs

Loading
-

CheckWX.com is intended as a tool to help pilots better visualize weather data. It is not intended as a substitute for an official weather briefing obtained from a Flight Service Station. CheckWX.com does not meet the FAA requirements for an official pre-flight weather briefing. Therefore, it's important that pilots still call and obtain an official FSS pre-flight weather briefing.